sensor_id;sensor_type;location;lat;lon;timestamp;P1;durP1;ratioP1;P2;durP2;ratioP2
53714;SDS011;39608;55.630;37.864;2022-11-10T00:03:30;13.23;;;9.60;;
53714;SDS011;39608;55.630;37.864;2022-11-10T00:08:32;12.98;;;9.32;;
53714;SDS011;39608;55.630;37.864;2022-11-10T00:13:37;15.00;;;9.63;;
53714;SDS011;39608;55.630;37.864;2022-11-10T00:19:00;14.77;;;10.18;;
53714;SDS011;39608;55.630;37.864;2022-11-10T00:24:02;16.40;;;9.63;;
53714;SDS011;39608;55.630;37.864;2022-11-10T00:29:06;13.00;;;9.43;;
53714;SDS011;39608;55.630;37.864;2022-11-10T00:34:10;14.73;;;10.20;;
53714;SDS011;39608;55.630;37.864;2022-11-10T00:39:13;14.07;;;9.73;;
53714;SDS011;39608;55.630;37.864;2022-11-10T00:44:16;22.17;;;11.80;;
53714;SDS011;39608;55.630;37.864;2022-11-10T00:49:20;12.95;;;10.48;;
53714;SDS011;39608;55.630;37.864;2022-11-10T00:54:24;12.55;;;9.95;;
53714;SDS011;39608;55.630;37.864;2022-11-10T00:59:27;13.07;;;9.98;;
53714;SDS011;39608;55.630;37.864;2022-11-10T01:04:30;13.48;;;9.40;;
53714;SDS011;39608;55.630;37.864;2022-11-10T01:09:32;15.30;;;10.32;;
53714;SDS011;39608;55.630;37.864;2022-11-10T01:14:35;13.35;;;10.20;;
53714;SDS011;39608;55.630;37.864;2022-11-10T01:19:37;14.02;;;9.93;;
53714;SDS011;39608;55.630;37.864;2022-11-10T01:24:42;13.27;;;10.45;;
53714;SDS011;39608;55.630;37.864;2022-11-10T01:29:45;14.65;;;10.10;;
53714;SDS011;39608;55.630;37.864;2022-11-10T01:34:47;14.35;;;9.95;;
53714;SDS011;39608;55.630;37.864;2022-11-10T01:39:49;19.02;;;10.93;;
53714;SDS011;39608;55.630;37.864;2022-11-10T01:50:32;14.65;;;10.40;;
53714;SDS011;39608;55.630;37.864;2022-11-10T01:55:38;17.75;;;11.05;;
53714;SDS011;39608;55.630;37.864;2022-11-10T02:00:43;15.27;;;11.75;;
53714;SDS011;39608;55.630;37.864;2022-11-10T02:05:47;16.58;;;11.23;;
53714;SDS011;39608;55.630;37.864;2022-11-10T02:10:50;16.42;;;11.30;;
53714;SDS011;39608;55.630;37.864;2022-11-10T02:15:52;15.82;;;10.27;;
53714;SDS011;39608;55.630;37.864;2022-11-10T02:20:56;13.65;;;10.65;;
53714;SDS011;39608;55.630;37.864;2022-11-10T02:25:58;20.02;;;11.48;;
53714;SDS011;39608;55.630;37.864;2022-11-10T02:31:00;14.80;;;10.45;;
53714;SDS011;39608;55.630;37.864;2022-11-10T02:36:05;21.23;;;11.23;;
53714;SDS011;39608;55.630;37.864;2022-11-10T02:41:07;15.23;;;10.20;;
53714;SDS011;39608;55.630;37.864;2022-11-10T02:46:09;18.15;;;11.18;;
53714;SDS011;39608;55.630;37.864;2022-11-10T02:51:13;17.65;;;11.75;;
53714;SDS011;39608;55.630;37.864;2022-11-10T02:56:15;14.35;;;10.10;;
53714;SDS011;39608;55.630;37.864;2022-11-10T03:01:17;16.10;;;10.50;;
53714;SDS011;39608;55.630;37.864;2022-11-10T03:06:21;12.98;;;9.85;;
53714;SDS011;39608;55.630;37.864;2022-11-10T03:11:23;16.25;;;10.77;;
53714;SDS011;39608;55.630;37.864;2022-11-10T03:16:25;14.73;;;10.05;;
53714;SDS011;39608;55.630;37.864;2022-11-10T03:21:28;16.35;;;10.70;;
53714;SDS011;39608;55.630;37.864;2022-11-10T03:26:30;15.20;;;10.45;;
53714;SDS011;39608;55.630;37.864;2022-11-10T03:31:32;19.85;;;10.90;;
53714;SDS011;39608;55.630;37.864;2022-11-10T03:36:36;14.32;;;10.43;;
53714;SDS011;39608;55.630;37.864;2022-11-10T03:41:38;13.88;;;10.13;;
53714;SDS011;39608;55.630;37.864;2022-11-10T03:46:40;14.18;;;10.73;;
53714;SDS011;39608;55.630;37.864;2022-11-10T03:51:43;15.65;;;11.30;;
53714;SDS011;39608;55.630;37.864;2022-11-10T03:56:46;14.82;;;11.00;;
53714;SDS011;39608;55.630;37.864;2022-11-10T04:01:48;14.98;;;10.95;;
53714;SDS011;39608;55.630;37.864;2022-11-10T04:06:51;14.18;;;10.63;;
53714;SDS011;39608;55.630;37.864;2022-11-10T04:12:10;15.35;;;10.82;;
53714;SDS011;39608;55.630;37.864;2022-11-10T04:17:30;18.10;;;11.35;;
53714;SDS011;39608;55.630;37.864;2022-11-10T04:22:36;16.33;;;10.55;;
53714;SDS011;39608;55.630;37.864;2022-11-10T04:27:56;15.80;;;10.48;;
53714;SDS011;39608;55.630;37.864;2022-11-10T04:32:58;17.80;;;11.90;;
53714;SDS011;39608;55.630;37.864;2022-11-10T04:38:02;18.02;;;10.88;;
53714;SDS011;39608;55.630;37.864;2022-11-10T04:43:04;14.23;;;11.30;;
53714;SDS011;39608;55.630;37.864;2022-11-10T04:48:06;15.20;;;11.30;;
53714;SDS011;39608;55.630;37.864;2022-11-10T04:53:09;17.83;;;11.25;;
53714;SDS011;39608;55.630;37.864;2022-11-10T04:58:11;17.77;;;9.68;;
53714;SDS011;39608;55.630;37.864;2022-11-10T05:03:14;15.75;;;10.50;;
53714;SDS011;39608;55.630;37.864;2022-11-10T05:08:18;14.48;;;10.88;;
53714;SDS011;39608;55.630;37.864;2022-11-10T05:13:20;12.82;;;10.32;;
53714;SDS011;39608;55.630;37.864;2022-11-10T05:18:22;18.15;;;10.68;;
53714;SDS011;39608;55.630;37.864;2022-11-10T05:23:26;18.70;;;10.05;;
53714;SDS011;39608;55.630;37.864;2022-11-10T05:28:42;11.85;;;8.90;;
53714;SDS011;39608;55.630;37.864;2022-11-10T05:33:45;14.27;;;9.70;;
53714;SDS011;39608;55.630;37.864;2022-11-10T05:38:49;17.95;;;9.70;;
53714;SDS011;39608;55.630;37.864;2022-11-10T05:43:51;14.55;;;9.07;;
53714;SDS011;39608;55.630;37.864;2022-11-10T05:48:53;12.05;;;8.25;;
53714;SDS011;39608;55.630;37.864;2022-11-10T05:53:56;14.63;;;8.95;;
53714;SDS011;39608;55.630;37.864;2022-11-10T05:58:58;13.50;;;7.53;;
53714;SDS011;39608;55.630;37.864;2022-11-10T06:04:00;16.98;;;8.75;;
53714;SDS011;39608;55.630;37.864;2022-11-10T06:09:04;15.45;;;8.68;;
53714;SDS011;39608;55.630;37.864;2022-11-10T06:14:06;16.77;;;9.05;;
53714;SDS011;39608;55.630;37.864;2022-11-10T06:19:08;16.20;;;9.25;;
53714;SDS011;39608;55.630;37.864;2022-11-10T06:24:11;16.35;;;8.73;;
53714;SDS011;39608;55.630;37.864;2022-11-10T06:29:14;14.20;;;8.90;;
53714;SDS011;39608;55.630;37.864;2022-11-10T06:34:16;14.40;;;8.25;;
53714;SDS011;39608;55.630;37.864;2022-11-10T06:39:19;15.65;;;8.85;;
53714;SDS011;39608;55.630;37.864;2022-11-10T06:44:22;15.30;;;8.95;;
53714;SDS011;39608;55.630;37.864;2022-11-10T06:49:24;14.98;;;8.90;;
53714;SDS011;39608;55.630;37.864;2022-11-10T06:54:29;18.80;;;8.73;;
53714;SDS011;39608;55.630;37.864;2022-11-10T06:59:31;13.35;;;8.60;;
53714;SDS011;39608;55.630;37.864;2022-11-10T07:04:33;11.15;;;8.38;;
53714;SDS011;39608;55.630;37.864;2022-11-10T07:09:38;14.63;;;8.60;;
53714;SDS011;39608;55.630;37.864;2022-11-10T07:14:40;14.25;;;8.68;;
53714;SDS011;39608;55.630;37.864;2022-11-10T07:19:42;13.65;;;9.15;;
53714;SDS011;39608;55.630;37.864;2022-11-10T07:24:46;19.83;;;9.15;;
53714;SDS011;39608;55.630;37.864;2022-11-10T07:29:48;12.60;;;8.70;;
53714;SDS011;39608;55.630;37.864;2022-11-10T07:34:50;19.17;;;8.40;;
53714;SDS011;39608;55.630;37.864;2022-11-10T07:39:53;11.68;;;7.72;;
53714;SDS011;39608;55.630;37.864;2022-11-10T07:44:55;17.92;;;8.63;;
53714;SDS011;39608;55.630;37.864;2022-11-10T07:49:57;15.32;;;8.48;;
53714;SDS011;39608;55.630;37.864;2022-11-10T07:55:01;15.05;;;9.60;;
53714;SDS011;39608;55.630;37.864;2022-11-10T08:00:04;16.88;;;9.80;;
53714;SDS011;39608;55.630;37.864;2022-11-10T08:05:07;15.35;;;9.13;;
53714;SDS011;39608;55.630;37.864;2022-11-10T08:10:11;16.42;;;9.57;;
53714;SDS011;39608;55.630;37.864;2022-11-10T08:15:15;15.18;;;9.15;;
53714;SDS011;39608;55.630;37.864;2022-11-10T08:20:17;17.33;;;9.93;;
53714;SDS011;39608;55.630;37.864;2022-11-10T08:25:21;19.67;;;9.80;;
53714;SDS011;39608;55.630;37.864;2022-11-10T08:30:23;15.35;;;9.98;;
53714;SDS011;39608;55.630;37.864;2022-11-10T08:35:26;20.75;;;9.63;;
53714;SDS011;39608;55.630;37.864;2022-11-10T08:40:31;13.80;;;9.95;;
53714;SDS011;39608;55.630;37.864;2022-11-10T08:45:34;13.95;;;8.95;;
53714;SDS011;39608;55.630;37.864;2022-11-10T08:50:36;18.80;;;10.73;;
53714;SDS011;39608;55.630;37.864;2022-11-10T08:55:40;15.88;;;10.68;;
53714;SDS011;39608;55.630;37.864;2022-11-10T09:00:44;18.30;;;11.23;;
53714;SDS011;39608;55.630;37.864;2022-11-10T09:05:46;26.77;;;11.70;;
53714;SDS011;39608;55.630;37.864;2022-11-10T09:10:51;20.15;;;12.27;;
53714;SDS011;39608;55.630;37.864;2022-11-10T09:15:53;20.48;;;11.18;;
53714;SDS011;39608;55.630;37.864;2022-11-10T09:20:55;19.83;;;11.68;;
53714;SDS011;39608;55.630;37.864;2022-11-10T09:25:58;16.50;;;10.80;;
53714;SDS011;39608;55.630;37.864;2022-11-10T09:31:01;17.35;;;11.25;;
53714;SDS011;39608;55.630;37.864;2022-11-10T09:36:03;19.65;;;11.52;;
53714;SDS011;39608;55.630;37.864;2022-11-10T09:41:08;17.20;;;11.25;;
53714;SDS011;39608;55.630;37.864;2022-11-10T09:46:13;17.47;;;11.23;;
53714;SDS011;39608;55.630;37.864;2022-11-10T09:51:20;21.52;;;11.63;;
53714;SDS011;39608;55.630;37.864;2022-11-10T09:56:28;22.33;;;12.20;;
53714;SDS011;39608;55.630;37.864;2022-11-10T10:01:33;20.38;;;11.45;;
53714;SDS011;39608;55.630;37.864;2022-11-10T10:06:44;21.70;;;11.45;;
53714;SDS011;39608;55.630;37.864;2022-11-10T10:11:58;20.98;;;11.70;;
53714;SDS011;39608;55.630;37.864;2022-11-10T10:17:14;20.05;;;12.43;;
53714;SDS011;39608;55.630;37.864;2022-11-10T10:22:28;21.48;;;11.73;;
53714;SDS011;39608;55.630;37.864;2022-11-10T10:27:44;21.80;;;12.65;;
53714;SDS011;39608;55.630;37.864;2022-11-10T10:32:49;19.45;;;11.98;;
53714;SDS011;39608;55.630;37.864;2022-11-10T10:37:57;23.52;;;11.40;;
53714;SDS011;39608;55.630;37.864;2022-11-10T10:43:04;24.02;;;13.07;;
53714;SDS011;39608;55.630;37.864;2022-11-10T10:48:15;21.88;;;11.73;;
53714;SDS011;39608;55.630;37.864;2022-11-10T10:53:25;18.83;;;11.60;;
53714;SDS011;39608;55.630;37.864;2022-11-10T10:58:29;19.63;;;11.85;;
53714;SDS011;39608;55.630;37.864;2022-11-10T11:03:39;22.38;;;12.82;;
53714;SDS011;39608;55.630;37.864;2022-11-10T11:08:51;30.77;;;12.85;;
53714;SDS011;39608;55.630;37.864;2022-11-10T11:19:19;16.40;;;11.63;;
53714;SDS011;39608;55.630;37.864;2022-11-10T11:24:26;20.05;;;11.90;;
53714;SDS011;39608;55.630;37.864;2022-11-10T11:29:40;21.85;;;12.80;;
53714;SDS011;39608;55.630;37.864;2022-11-10T11:34:56;29.02;;;13.73;;
53714;SDS011;39608;55.630;37.864;2022-11-10T11:40:13;25.27;;;12.68;;
53714;SDS011;39608;55.630;37.864;2022-11-10T11:50:36;20.38;;;12.18;;
53714;SDS011;39608;55.630;37.864;2022-11-10T11:55:48;21.10;;;11.45;;
53714;SDS011;39608;55.630;37.864;2022-11-10T12:01:04;24.05;;;13.20;;
53714;SDS011;39608;55.630;37.864;2022-11-10T12:06:20;25.70;;;13.50;;
53714;SDS011;39608;55.630;37.864;2022-11-10T12:11:34;32.63;;;12.38;;
53714;SDS011;39608;55.630;37.864;2022-11-10T12:16:50;19.20;;;12.50;;
53714;SDS011;39608;55.630;37.864;2022-11-10T12:22:02;16.65;;;11.70;;
53714;SDS011;39608;55.630;37.864;2022-11-10T12:27:13;18.58;;;11.80;;
53714;SDS011;39608;55.630;37.864;2022-11-10T12:32:21;23.47;;;13.50;;
53714;SDS011;39608;55.630;37.864;2022-11-10T12:37:32;20.40;;;12.48;;
53714;SDS011;39608;55.630;37.864;2022-11-10T12:42:39;25.95;;;13.95;;
53714;SDS011;39608;55.630;37.864;2022-11-10T12:47:47;19.47;;;12.17;;
53714;SDS011;39608;55.630;37.864;2022-11-10T12:52:51;21.40;;;12.15;;
53714;SDS011;39608;55.630;37.864;2022-11-10T12:57:55;21.88;;;13.25;;
53714;SDS011;39608;55.630;37.864;2022-11-10T13:03:02;24.73;;;13.50;;
53714;SDS011;39608;55.630;37.864;2022-11-10T13:08:06;21.35;;;13.30;;
53714;SDS011;39608;55.630;37.864;2022-11-10T13:13:18;22.92;;;14.00;;
53714;SDS011;39608;55.630;37.864;2022-11-10T13:29:29;21.10;;;13.10;;
53714;SDS011;39608;55.630;37.864;2022-11-10T13:34:34;23.00;;;13.32;;
53714;SDS011;39608;55.630;37.864;2022-11-10T13:39:38;23.15;;;14.95;;
53714;SDS011;39608;55.630;37.864;2022-11-10T13:44:40;23.15;;;13.95;;
53714;SDS011;39608;55.630;37.864;2022-11-10T13:49:55;24.00;;;14.55;;
53714;SDS011;39608;55.630;37.864;2022-11-10T13:55:27;24.95;;;14.43;;
53714;SDS011;39608;55.630;37.864;2022-11-10T14:00:38;21.50;;;15.02;;
53714;SDS011;39608;55.630;37.864;2022-11-10T14:11:05;23.65;;;14.50;;
53714;SDS011;39608;55.630;37.864;2022-11-10T14:16:15;22.70;;;15.77;;
53714;SDS011;39608;55.630;37.864;2022-11-10T14:21:20;23.25;;;15.18;;
53714;SDS011;39608;55.630;37.864;2022-11-10T14:31:32;21.20;;;13.85;;
53714;SDS011;39608;55.630;37.864;2022-11-10T14:36:36;27.17;;;16.23;;
53714;SDS011;39608;55.630;37.864;2022-11-10T14:41:45;22.13;;;15.05;;
53714;SDS011;39608;55.630;37.864;2022-11-10T14:46:48;22.77;;;15.30;;
53714;SDS011;39608;55.630;37.864;2022-11-10T14:51:54;30.52;;;14.90;;
53714;SDS011;39608;55.630;37.864;2022-11-10T14:57:00;31.77;;;16.65;;
53714;SDS011;39608;55.630;37.864;2022-11-10T15:02:08;27.35;;;16.40;;
53714;SDS011;39608;55.630;37.864;2022-11-10T15:07:15;29.70;;;16.60;;
53714;SDS011;39608;55.630;37.864;2022-11-10T15:12:20;26.23;;;17.10;;
53714;SDS011;39608;55.630;37.864;2022-11-10T15:17:42;23.80;;;16.48;;
53714;SDS011;39608;55.630;37.864;2022-11-10T15:22:47;28.13;;;17.05;;
53714;SDS011;39608;55.630;37.864;2022-11-10T15:27:56;33.17;;;18.85;;
53714;SDS011;39608;55.630;37.864;2022-11-10T15:33:07;29.38;;;17.30;;
53714;SDS011;39608;55.630;37.864;2022-11-10T15:38:19;28.33;;;16.85;;
53714;SDS011;39608;55.630;37.864;2022-11-10T15:43:27;24.55;;;17.20;;
53714;SDS011;39608;55.630;37.864;2022-11-10T15:48:30;26.08;;;16.25;;
53714;SDS011;39608;55.630;37.864;2022-11-10T15:53:39;30.75;;;18.92;;
53714;SDS011;39608;55.630;37.864;2022-11-10T15:58:45;30.50;;;17.70;;
53714;SDS011;39608;55.630;37.864;2022-11-10T16:03:49;31.13;;;18.40;;
53714;SDS011;39608;55.630;37.864;2022-11-10T16:08:51;29.33;;;18.33;;
53714;SDS011;39608;55.630;37.864;2022-11-10T16:13:54;28.25;;;17.13;;
53714;SDS011;39608;55.630;37.864;2022-11-10T16:18:58;30.00;;;17.73;;
53714;SDS011;39608;55.630;37.864;2022-11-10T16:24:02;30.48;;;17.92;;
53714;SDS011;39608;55.630;37.864;2022-11-10T16:29:08;26.27;;;16.90;;
53714;SDS011;39608;55.630;37.864;2022-11-10T16:34:13;28.13;;;18.08;;
53714;SDS011;39608;55.630;37.864;2022-11-10T16:39:15;33.50;;;15.75;;
53714;SDS011;39608;55.630;37.864;2022-11-10T16:44:21;28.13;;;16.83;;
53714;SDS011;39608;55.630;37.864;2022-11-10T16:49:24;30.83;;;18.23;;
53714;SDS011;39608;55.630;37.864;2022-11-10T16:54:31;32.13;;;17.48;;
53714;SDS011;39608;55.630;37.864;2022-11-10T16:59:35;30.63;;;16.60;;
53714;SDS011;39608;55.630;37.864;2022-11-10T17:04:37;31.45;;;17.70;;
53714;SDS011;39608;55.630;37.864;2022-11-10T17:09:40;31.73;;;17.67;;
53714;SDS011;39608;55.630;37.864;2022-11-10T17:14:43;30.45;;;18.38;;
53714;SDS011;39608;55.630;37.864;2022-11-10T17:19:46;27.35;;;16.73;;
53714;SDS011;39608;55.630;37.864;2022-11-10T17:24:51;27.17;;;15.73;;
53714;SDS011;39608;55.630;37.864;2022-11-10T17:29:57;30.42;;;16.65;;
53714;SDS011;39608;55.630;37.864;2022-11-10T17:34:59;27.33;;;16.25;;
53714;SDS011;39608;55.630;37.864;2022-11-10T17:40:16;34.78;;;18.02;;
53714;SDS011;39608;55.630;37.864;2022-11-10T17:45:22;28.77;;;15.88;;
53714;SDS011;39608;55.630;37.864;2022-11-10T17:50:26;25.40;;;15.45;;
53714;SDS011;39608;55.630;37.864;2022-11-10T17:55:29;27.05;;;15.93;;
53714;SDS011;39608;55.630;37.864;2022-11-10T18:00:33;30.00;;;16.70;;
53714;SDS011;39608;55.630;37.864;2022-11-10T18:05:35;30.20;;;18.02;;
53714;SDS011;39608;55.630;37.864;2022-11-10T18:10:39;31.05;;;16.95;;
53714;SDS011;39608;55.630;37.864;2022-11-10T18:15:44;31.42;;;16.52;;
53714;SDS011;39608;55.630;37.864;2022-11-10T18:20:47;31.00;;;17.23;;
53714;SDS011;39608;55.630;37.864;2022-11-10T18:25:50;35.58;;;18.50;;
53714;SDS011;39608;55.630;37.864;2022-11-10T18:30:53;27.88;;;17.77;;
53714;SDS011;39608;55.630;37.864;2022-11-10T18:35:58;34.80;;;16.75;;
53714;SDS011;39608;55.630;37.864;2022-11-10T18:41:01;32.95;;;18.08;;
53714;SDS011;39608;55.630;37.864;2022-11-10T18:46:27;30.73;;;17.63;;
53714;SDS011;39608;55.630;37.864;2022-11-10T18:51:29;34.30;;;19.15;;
53714;SDS011;39608;55.630;37.864;2022-11-10T18:56:33;36.40;;;19.13;;
53714;SDS011;39608;55.630;37.864;2022-11-10T19:01:36;32.30;;;19.48;;
53714;SDS011;39608;55.630;37.864;2022-11-10T19:06:40;35.72;;;19.52;;
53714;SDS011;39608;55.630;37.864;2022-11-10T19:11:42;29.95;;;18.08;;
53714;SDS011;39608;55.630;37.864;2022-11-10T19:16:46;32.80;;;19.50;;
53714;SDS011;39608;55.630;37.864;2022-11-10T19:21:48;35.42;;;20.60;;
53714;SDS011;39608;55.630;37.864;2022-11-10T19:26:52;30.48;;;18.30;;
53714;SDS011;39608;55.630;37.864;2022-11-10T19:31:56;31.65;;;20.20;;
53714;SDS011;39608;55.630;37.864;2022-11-10T19:37:00;34.33;;;20.20;;
53714;SDS011;39608;55.630;37.864;2022-11-10T19:42:03;36.63;;;20.60;;
53714;SDS011;39608;55.630;37.864;2022-11-10T19:47:06;36.17;;;19.92;;
53714;SDS011;39608;55.630;37.864;2022-11-10T19:52:09;36.08;;;21.77;;
53714;SDS011;39608;55.630;37.864;2022-11-10T19:57:11;34.63;;;20.98;;
53714;SDS011;39608;55.630;37.864;2022-11-10T20:02:14;35.08;;;21.70;;
53714;SDS011;39608;55.630;37.864;2022-11-10T20:07:17;35.53;;;21.88;;
53714;SDS011;39608;55.630;37.864;2022-11-10T20:12:36;34.65;;;20.88;;
53714;SDS011;39608;55.630;37.864;2022-11-10T20:17:40;33.28;;;20.85;;
53714;SDS011;39608;55.630;37.864;2022-11-10T20:22:43;32.92;;;19.85;;
53714;SDS011;39608;55.630;37.864;2022-11-10T20:27:46;36.65;;;20.50;;
53714;SDS011;39608;55.630;37.864;2022-11-10T20:32:49;31.35;;;20.50;;
53714;SDS011;39608;55.630;37.864;2022-11-10T20:37:51;33.75;;;20.75;;
53714;SDS011;39608;55.630;37.864;2022-11-10T20:42:55;34.83;;;20.10;;
53714;SDS011;39608;55.630;37.864;2022-11-10T20:47:58;37.08;;;22.55;;
53714;SDS011;39608;55.630;37.864;2022-11-10T20:53:00;31.05;;;20.40;;
53714;SDS011;39608;55.630;37.864;2022-11-10T20:58:06;32.65;;;21.98;;
53714;SDS011;39608;55.630;37.864;2022-11-10T21:03:10;40.78;;;20.38;;
53714;SDS011;39608;55.630;37.864;2022-11-10T21:08:12;29.05;;;18.52;;
53714;SDS011;39608;55.630;37.864;2022-11-10T21:13:14;30.58;;;19.13;;
53714;SDS011;39608;55.630;37.864;2022-11-10T21:18:18;35.38;;;21.95;;
53714;SDS011;39608;55.630;37.864;2022-11-10T21:23:21;31.98;;;19.20;;
53714;SDS011;39608;55.630;37.864;2022-11-10T21:28:23;26.05;;;17.15;;
53714;SDS011;39608;55.630;37.864;2022-11-10T21:33:27;30.63;;;19.52;;
53714;SDS011;39608;55.630;37.864;2022-11-10T21:38:29;29.85;;;18.33;;
53714;SDS011;39608;55.630;37.864;2022-11-10T21:43:31;30.83;;;19.38;;
53714;SDS011;39608;55.630;37.864;2022-11-10T21:48:34;27.08;;;16.98;;
53714;SDS011;39608;55.630;37.864;2022-11-10T21:53:37;33.15;;;17.88;;
53714;SDS011;39608;55.630;37.864;2022-11-10T21:58:41;26.88;;;18.00;;
53714;SDS011;39608;55.630;37.864;2022-11-10T22:03:45;37.53;;;19.45;;
53714;SDS011;39608;55.630;37.864;2022-11-10T22:08:47;36.40;;;18.20;;
53714;SDS011;39608;55.630;37.864;2022-11-10T22:13:49;30.98;;;18.00;;
53714;SDS011;39608;55.630;37.864;2022-11-10T22:19:11;27.33;;;18.05;;
53714;SDS011;39608;55.630;37.864;2022-11-10T22:24:13;32.17;;;18.65;;
53714;SDS011;39608;55.630;37.864;2022-11-10T22:29:26;24.00;;;16.33;;
53714;SDS011;39608;55.630;37.864;2022-11-10T22:34:31;28.45;;;16.58;;
53714;SDS011;39608;55.630;37.864;2022-11-10T22:39:33;26.13;;;17.48;;
53714;SDS011;39608;55.630;37.864;2022-11-10T22:44:53;31.35;;;18.02;;
53714;SDS011;39608;55.630;37.864;2022-11-10T22:49:56;29.02;;;18.85;;
53714;SDS011;39608;55.630;37.864;2022-11-10T22:54:58;34.33;;;19.95;;
53714;SDS011;39608;55.630;37.864;2022-11-10T23:00:00;34.45;;;18.75;;
53714;SDS011;39608;55.630;37.864;2022-11-10T23:05:05;39.28;;;19.83;;
53714;SDS011;39608;55.630;37.864;2022-11-10T23:10:08;32.03;;;20.75;;
53714;SDS011;39608;55.630;37.864;2022-11-10T23:15:10;32.33;;;19.20;;
53714;SDS011;39608;55.630;37.864;2022-11-10T23:20:14;34.75;;;20.52;;
53714;SDS011;39608;55.630;37.864;2022-11-10T23:25:16;32.38;;;18.27;;
53714;SDS011;39608;55.630;37.864;2022-11-10T23:30:18;35.97;;;19.52;;
53714;SDS011;39608;55.630;37.864;2022-11-10T23:35:22;30.95;;;18.38;;
53714;SDS011;39608;55.630;37.864;2022-11-10T23:40:24;35.53;;;19.65;;
53714;SDS011;39608;55.630;37.864;2022-11-10T23:45:26;33.03;;;18.13;;
53714;SDS011;39608;55.630;37.864;2022-11-10T23:50:29;28.02;;;18.52;;
53714;SDS011;39608;55.630;37.864;2022-11-10T23:55:31;31.02;;;19.65;;
